<?xml version="1.0" encoding="UTF-8" standalone="no" ?>
<gpx xmlns="http://www.topografix.com/GPX/1/1" xmlns:xsi="http://www.w3.org/2001/XMLSchema-instance" xsi:schemaLocation="http://www.topografix.com/GPX/1/1 http://www.topografix.com/GPX/1/1/gpx.xsd" version="1.1" creator="VisuGPX - https://www.visugpx.com">
  <metadata>
    <name>Bensafrim Pincho</name>
    <desc><![CDATA[Parcours entrainement course à pied sur piste en terre. Départ de Fronteira prés de Bensafrim, quelques "coups de cul" à l'aller et retour par le vallon en faux plat descendant.
Pas de point d'au sur le parcours]]></desc>
  </metadata>
  <trk>
    <name><![CDATA[Pincho1]]></name>
    <trkseg>
      <trkpt lat="37.15825" lon="-8.71995">
        <ele>28.976928710938</ele>
        <time>2019-01-06T09:44:54Z</time>
      </trkpt>
      <trkpt lat="37.15864" lon="-8.71957">
        <ele>28.015502929688</ele>
        <time>2019-01-06T09:45:06Z</time>
      </trkpt>
      <trkpt lat="37.15885" lon="-8.71885">
        <ele>26.573608398438</ele>
        <time>2019-01-06T09:45:19Z</time>
      </trkpt>
      <trkpt lat="37.15912" lon="-8.71772">
        <ele>22.728271484375</ele>
        <time>2019-01-06T09:45:36Z</time>
      </trkpt>
      <trkpt lat="37.15991" lon="-8.71466">
        <ele>20.8056640625</ele>
        <time>2019-01-06T09:46:24Z</time>
      </trkpt>
      <trkpt lat="37.16023" lon="-8.71424">
        <ele>25.131713867188</ele>
        <time>2018-10-02T08:58:09Z</time>
      </trkpt>
      <trkpt lat="37.16058" lon="-8.71401">
        <ele>25.131713867188</ele>
        <time>2018-10-02T08:57:58Z</time>
      </trkpt>
      <trkpt lat="37.1608" lon="-8.71397">
        <ele>25.6123046875</ele>
        <time>2018-10-02T08:57:53Z</time>
      </trkpt>
      <trkpt lat="37.16101" lon="-8.71403">
        <ele>26.092895507812</ele>
        <time>2018-10-02T08:57:48Z</time>
      </trkpt>
      <trkpt lat="37.16172" lon="-8.71421">
        <ele>25.6123046875</ele>
        <time>2018-10-02T08:57:28Z</time>
      </trkpt>
      <trkpt lat="37.16231" lon="-8.71425">
        <ele>26.092895507812</ele>
        <time>2018-10-02T08:57:12Z</time>
      </trkpt>
      <trkpt lat="37.16303" lon="-8.71414">
        <ele>26.092895507812</ele>
        <time>2018-10-02T08:56:52Z</time>
      </trkpt>
      <trkpt lat="37.16367" lon="-8.71388">
        <ele>27.534912109375</ele>
        <time>2018-10-02T08:56:34Z</time>
      </trkpt>
      <trkpt lat="37.16432" lon="-8.71368">
        <ele>27.534912109375</ele>
        <time>2018-10-02T08:56:16Z</time>
      </trkpt>
      <trkpt lat="37.16496" lon="-8.71353">
        <ele>28.015502929688</ele>
        <time>2018-10-02T08:55:59Z</time>
      </trkpt>
      <trkpt lat="37.1657" lon="-8.71348">
        <ele>28.976928710938</ele>
        <time>2018-10-02T08:55:39Z</time>
      </trkpt>
      <trkpt lat="37.16634" lon="-8.71351">
        <ele>28.976928710938</ele>
        <time>2018-10-02T08:55:22Z</time>
      </trkpt>
      <trkpt lat="37.16704" lon="-8.7138">
        <ele>28.976928710938</ele>
        <time>2018-10-02T08:55:02Z</time>
      </trkpt>
      <trkpt lat="37.16768" lon="-8.71412">
        <ele>29.938110351562</ele>
        <time>2018-10-02T08:54:44Z</time>
      </trkpt>
      <trkpt lat="37.16834" lon="-8.71463">
        <ele>30.418823242188</ele>
        <time>2018-10-02T08:54:22Z</time>
      </trkpt>
      <trkpt lat="37.16886" lon="-8.71506">
        <ele>30.899536132812</ele>
        <time>2018-10-02T08:54:04Z</time>
      </trkpt>
      <trkpt lat="37.16916" lon="-8.7154">
        <ele>30.899536132812</ele>
        <time>2018-10-02T08:53:50Z</time>
      </trkpt>
      <trkpt lat="37.16963" lon="-8.71607">
        <ele>31.380126953125</ele>
        <time>2018-10-02T08:53:30Z</time>
      </trkpt>
      <trkpt lat="37.17012" lon="-8.7165">
        <ele>31.380126953125</ele>
        <time>2018-10-02T08:53:14Z</time>
      </trkpt>
      <trkpt lat="37.17028" lon="-8.71681">
        <ele>32.341552734375</ele>
        <time>2018-10-02T08:53:07Z</time>
      </trkpt>
      <trkpt lat="37.17026" lon="-8.71696">
        <ele>33.783447265625</ele>
        <time>2018-10-02T08:53:04Z</time>
      </trkpt>
      <trkpt lat="37.17042" lon="-8.71748">
        <ele>34.744873046875</ele>
        <time>2018-10-02T08:52:51Z</time>
      </trkpt>
      <trkpt lat="37.17058" lon="-8.71802">
        <ele>35.7060546875</ele>
        <time>2018-10-02T08:52:39Z</time>
      </trkpt>
      <trkpt lat="37.17104" lon="-8.71844">
        <ele>36.186767578125</ele>
        <time>2018-10-02T08:52:23Z</time>
      </trkpt>
      <trkpt lat="37.1717" lon="-8.71895">
        <ele>35.7060546875</ele>
        <time>2018-10-02T08:52:03Z</time>
      </trkpt>
      <trkpt lat="37.17223" lon="-8.71935">
        <ele>37.628662109375</ele>
        <time>2018-10-02T08:51:47Z</time>
      </trkpt>
      <trkpt lat="37.17277" lon="-8.7198">
        <ele>38.109375</ele>
        <time>2018-10-02T08:51:30Z</time>
      </trkpt>
      <trkpt lat="37.1733" lon="-8.72052">
        <ele>37.148071289062</ele>
        <time>2018-10-02T08:51:08Z</time>
      </trkpt>
      <trkpt lat="37.17378" lon="-8.72091">
        <ele>38.109375</ele>
        <time>2018-10-02T08:50:52Z</time>
      </trkpt>
      <trkpt lat="37.17439" lon="-8.72157">
        <ele>37.628662109375</ele>
        <time>2018-10-02T08:50:30Z</time>
      </trkpt>
      <trkpt lat="37.17479" lon="-8.72206">
        <ele>37.148071289062</ele>
        <time>2018-10-02T08:50:15Z</time>
      </trkpt>
      <trkpt lat="37.175" lon="-8.72277">
        <ele>36.66748046875</ele>
        <time>2018-10-02T08:49:57Z</time>
      </trkpt>
      <trkpt lat="37.17514" lon="-8.72325">
        <ele>37.148071289062</ele>
        <time>2018-10-02T08:49:45Z</time>
      </trkpt>
      <trkpt lat="37.17567" lon="-8.7237">
        <ele>39.070678710938</ele>
        <time>2018-10-02T08:49:27Z</time>
      </trkpt>
      <trkpt lat="37.17613" lon="-8.72395">
        <ele>38.590087890625</ele>
        <time>2018-10-02T08:49:12Z</time>
      </trkpt>
      <trkpt lat="37.1767" lon="-8.72454">
        <ele>40.512817382812</ele>
        <time>2018-10-02T08:48:52Z</time>
      </trkpt>
      <trkpt lat="37.1772" lon="-8.72471">
        <ele>40.032104492188</ele>
        <time>2018-10-02T08:48:35Z</time>
      </trkpt>
      <trkpt lat="37.17749" lon="-8.7247">
        <ele>38.590087890625</ele>
        <time>2018-10-02T08:48:26Z</time>
      </trkpt>
      <trkpt lat="37.17752" lon="-8.72469">
        <ele>39.070678710938</ele>
        <time>2018-10-02T08:48:25Z</time>
      </trkpt>
      <trkpt lat="37.17796" lon="-8.72517">
        <ele>40.512817382812</ele>
        <time>2018-10-02T08:48:09Z</time>
      </trkpt>
      <trkpt lat="37.17857" lon="-8.72586">
        <ele>40.512817382812</ele>
        <time>2018-10-02T08:47:47Z</time>
      </trkpt>
      <trkpt lat="37.17922" lon="-8.72625">
        <ele>40.032104492188</ele>
        <time>2018-10-02T08:47:27Z</time>
      </trkpt>
      <trkpt lat="37.1798" lon="-8.72647">
        <ele>42.916015625</ele>
        <time>2018-10-02T08:47:10Z</time>
      </trkpt>
      <trkpt lat="37.18049" lon="-8.72703">
        <ele>42.916015625</ele>
        <time>2018-10-02T08:46:47Z</time>
      </trkpt>
      <trkpt lat="37.18118" lon="-8.72728">
        <ele>43.396606445312</ele>
        <time>2018-10-02T08:46:29Z</time>
      </trkpt>
      <trkpt lat="37.18175" lon="-8.72744">
        <ele>46.76123046875</ele>
        <time>2018-10-02T08:46:15Z</time>
      </trkpt>
      <trkpt lat="37.18218" lon="-8.72785">
        <ele>46.280639648438</ele>
        <time>2018-10-02T08:45:59Z</time>
      </trkpt>
      <trkpt lat="37.18268" lon="-8.72837">
        <ele>46.76123046875</ele>
        <time>2018-10-02T08:45:42Z</time>
      </trkpt>
      <trkpt lat="37.1833" lon="-8.72847">
        <ele>47.722534179688</ele>
        <time>2018-10-02T08:45:24Z</time>
      </trkpt>
      <trkpt lat="37.18385" lon="-8.7283">
        <ele>47.241821289062</ele>
        <time>2018-10-02T08:45:05Z</time>
      </trkpt>
      <trkpt lat="37.18392" lon="-8.72842">
        <ele>47.241821289062</ele>
        <time>2018-10-02T08:44:59Z</time>
      </trkpt>
      <trkpt lat="37.18366" lon="-8.72874">
        <ele>47.722534179688</ele>
        <time>2018-10-02T08:44:45Z</time>
      </trkpt>
      <trkpt lat="37.18319" lon="-8.72932">
        <ele>47.241821289062</ele>
        <time>2018-10-02T08:44:22Z</time>
      </trkpt>
      <trkpt lat="37.18265" lon="-8.72982">
        <ele>45.799926757812</ele>
        <time>2018-10-02T08:44:03Z</time>
      </trkpt>
      <trkpt lat="37.18257" lon="-8.72995">
        <ele>45.319213867188</ele>
        <time>2018-10-02T08:43:54Z</time>
      </trkpt>
      <trkpt lat="37.18259" lon="-8.73031">
        <ele>45.799926757812</ele>
        <time>2018-10-02T08:43:42Z</time>
      </trkpt>
      <trkpt lat="37.18287" lon="-8.73099">
        <ele>46.280639648438</ele>
        <time>2018-10-02T08:43:20Z</time>
      </trkpt>
      <trkpt lat="37.18312" lon="-8.73162">
        <ele>45.799926757812</ele>
        <time>2018-10-02T08:43:01Z</time>
      </trkpt>
      <trkpt lat="37.18336" lon="-8.73244">
        <ele>47.241821289062</ele>
        <time>2018-10-02T08:42:38Z</time>
      </trkpt>
      <trkpt lat="37.18353" lon="-8.73328">
        <ele>48.203369140625</ele>
        <time>2018-10-02T08:42:16Z</time>
      </trkpt>
      <trkpt lat="37.18377" lon="-8.73397">
        <ele>49.645263671875</ele>
        <time>2018-10-02T08:41:58Z</time>
      </trkpt>
      <trkpt lat="37.18406" lon="-8.73443">
        <ele>49.645263671875</ele>
        <time>2018-10-02T08:41:42Z</time>
      </trkpt>
      <trkpt lat="37.18439" lon="-8.73497">
        <ele>50.1259765625</ele>
        <time>2018-10-02T08:41:23Z</time>
      </trkpt>
      <trkpt lat="37.18474" lon="-8.73553">
        <ele>49.645263671875</ele>
        <time>2018-10-02T08:41:05Z</time>
      </trkpt>
      <trkpt lat="37.18514" lon="-8.73606">
        <ele>50.606567382812</ele>
        <time>2018-10-02T08:40:46Z</time>
      </trkpt>
      <trkpt lat="37.18526" lon="-8.73668">
        <ele>50.606567382812</ele>
        <time>2018-10-02T08:40:29Z</time>
      </trkpt>
      <trkpt lat="37.18506" lon="-8.73717">
        <ele>50.606567382812</ele>
        <time>2018-10-02T08:40:14Z</time>
      </trkpt>
      <trkpt lat="37.18488" lon="-8.73751">
        <ele>51.087158203125</ele>
        <time>2018-10-02T08:39:57Z</time>
      </trkpt>
      <trkpt lat="37.18479" lon="-8.73784">
        <ele>49.16455078125</ele>
        <time>2018-10-02T08:39:46Z</time>
      </trkpt>
      <trkpt lat="37.1848" lon="-8.73807">
        <ele>50.606567382812</ele>
        <time>2018-10-02T08:39:42Z</time>
      </trkpt>
      <trkpt lat="37.18481" lon="-8.7382">
        <ele>51.087158203125</ele>
        <time>2018-10-02T08:39:40Z</time>
      </trkpt>
      <trkpt lat="37.18483" lon="-8.73846">
        <ele>52.529174804688</ele>
        <time>2018-10-02T08:39:36Z</time>
      </trkpt>
      <trkpt lat="37.18492" lon="-8.73864">
        <ele>53.009765625</ele>
        <time>2018-10-02T08:39:32Z</time>
      </trkpt>
      <trkpt lat="37.18508" lon="-8.73909">
        <ele>54.932373046875</ele>
        <time>2018-10-02T08:39:19Z</time>
      </trkpt>
      <trkpt lat="37.18527" lon="-8.73951">
        <ele>56.855102539062</ele>
        <time>2018-10-02T08:39:03Z</time>
      </trkpt>
      <trkpt lat="37.18559" lon="-8.7401">
        <ele>57.816528320312</ele>
        <time>2018-10-02T08:38:44Z</time>
      </trkpt>
      <trkpt lat="37.18559" lon="-8.7401">
        <ele>57.335815429688</ele>
        <time>2018-10-02T08:38:11Z</time>
      </trkpt>
      <trkpt lat="37.18559" lon="-8.7401">
        <ele>57.816528320312</ele>
        <time>2018-10-02T08:37:44Z</time>
      </trkpt>
      <trkpt lat="37.1858" lon="-8.74024">
        <ele>60.2197265625</ele>
        <time>2018-10-02T08:37:34Z</time>
      </trkpt>
      <trkpt lat="37.18599" lon="-8.74034">
        <ele>62.622924804688</ele>
        <time>2018-10-02T08:37:30Z</time>
      </trkpt>
      <trkpt lat="37.18616" lon="-8.74042">
        <ele>63.584350585938</ele>
        <time>2018-10-02T08:37:26Z</time>
      </trkpt>
      <trkpt lat="37.18628" lon="-8.74047">
        <ele>64.065063476562</ele>
        <time>2018-10-02T08:37:23Z</time>
      </trkpt>
      <trkpt lat="37.18649" lon="-8.74049">
        <ele>65.0263671875</ele>
        <time>2018-10-02T08:37:18Z</time>
      </trkpt>
      <trkpt lat="37.18663" lon="-8.7405">
        <ele>66.46826171875</ele>
        <time>2018-10-02T08:37:15Z</time>
      </trkpt>
      <trkpt lat="37.18672" lon="-8.74049">
        <ele>66.948974609375</ele>
        <time>2018-10-02T08:37:13Z</time>
      </trkpt>
      <trkpt lat="37.1872" lon="-8.74042">
        <ele>71.27490234375</ele>
        <time>2018-10-02T08:37:01Z</time>
      </trkpt>
      <trkpt lat="37.18731" lon="-8.74043">
        <ele>72.236206054688</ele>
        <time>2018-10-02T08:36:58Z</time>
      </trkpt>
      <trkpt lat="37.18768" lon="-8.74052">
        <ele>74.639526367188</ele>
        <time>2018-10-02T08:36:47Z</time>
      </trkpt>
      <trkpt lat="37.18804" lon="-8.74037">
        <ele>78.004028320312</ele>
        <time>2018-10-02T08:36:36Z</time>
      </trkpt>
      <trkpt lat="37.1886" lon="-8.74033">
        <ele>80.407470703125</ele>
        <time>2018-10-02T08:36:18Z</time>
      </trkpt>
      <trkpt lat="37.18874" lon="-8.74034">
        <ele>80.407470703125</ele>
        <time>2018-10-02T08:36:04Z</time>
      </trkpt>
      <trkpt lat="37.18874" lon="-8.74034">
        <ele>79.926635742188</ele>
        <time>2018-10-02T08:35:51Z</time>
      </trkpt>
      <trkpt lat="37.18885" lon="-8.74036">
        <ele>80.88818359375</ele>
        <time>2018-10-02T08:35:41Z</time>
      </trkpt>
      <trkpt lat="37.18897" lon="-8.74039">
        <ele>82.810791015625</ele>
        <time>2018-10-02T08:35:37Z</time>
      </trkpt>
      <trkpt lat="37.18909" lon="-8.7404">
        <ele>86.656005859375</ele>
        <time>2018-10-02T08:35:33Z</time>
      </trkpt>
      <trkpt lat="37.18916" lon="-8.74042">
        <ele>88.098022460938</ele>
        <time>2018-10-02T08:35:30Z</time>
      </trkpt>
      <trkpt lat="37.18929" lon="-8.74039">
        <ele>90.98193359375</ele>
        <time>2018-10-02T08:35:25Z</time>
      </trkpt>
      <trkpt lat="37.18946" lon="-8.74035">
        <ele>94.346557617188</ele>
        <time>2018-10-02T08:35:17Z</time>
      </trkpt>
      <trkpt lat="37.18966" lon="-8.74032">
        <ele>97.23046875</ele>
        <time>2018-10-02T08:35:07Z</time>
      </trkpt>
      <trkpt lat="37.18974" lon="-8.7403">
        <ele>98.19189453125</ele>
        <time>2018-10-02T08:34:04Z</time>
      </trkpt>
      <trkpt lat="37.18975" lon="-8.7403">
        <ele>98.672485351562</ele>
        <time>2018-10-02T08:33:50Z</time>
      </trkpt>
      <trkpt lat="37.19002" lon="-8.74025">
        <ele>100.11450195312</ele>
        <time>2018-10-02T08:33:36Z</time>
      </trkpt>
      <trkpt lat="37.19049" lon="-8.74015">
        <ele>100.59509277344</ele>
        <time>2018-10-02T08:33:23Z</time>
      </trkpt>
      <trkpt lat="37.19093" lon="-8.74">
        <ele>102.99829101562</ele>
        <time>2018-10-02T08:33:15Z</time>
      </trkpt>
      <trkpt lat="37.19113" lon="-8.73993">
        <ele>105.40173339844</ele>
        <time>2018-10-02T08:33:10Z</time>
      </trkpt>
      <trkpt lat="37.19132" lon="-8.73981">
        <ele>108.28564453125</ele>
        <time>2018-10-02T08:33:03Z</time>
      </trkpt>
      <trkpt lat="37.19138" lon="-8.73976">
        <ele>109.72766113281</ele>
        <time>2018-10-02T08:33:01Z</time>
      </trkpt>
      <trkpt lat="37.19156" lon="-8.73964">
        <ele>113.09228515625</ele>
        <time>2018-10-02T08:32:55Z</time>
      </trkpt>
      <trkpt lat="37.19162" lon="-8.73961">
        <ele>114.05358886719</ele>
        <time>2018-10-02T08:32:53Z</time>
      </trkpt>
      <trkpt lat="37.1921" lon="-8.73948">
        <ele>116.9375</ele>
        <time>2018-10-02T08:32:34Z</time>
      </trkpt>
      <trkpt lat="37.19254" lon="-8.73953">
        <ele>115.49560546875</ele>
        <time>2018-10-02T08:32:16Z</time>
      </trkpt>
      <trkpt lat="37.19307" lon="-8.73971">
        <ele>116.45678710938</ele>
        <time>2018-10-02T08:31:59Z</time>
      </trkpt>
      <trkpt lat="37.19347" lon="-8.73983">
        <ele>115.97619628906</ele>
        <time>2018-10-02T08:31:43Z</time>
      </trkpt>
      <trkpt lat="37.19394" lon="-8.73992">
        <ele>116.45678710938</ele>
        <time>2018-10-02T08:31:32Z</time>
      </trkpt>
      <trkpt lat="37.19429" lon="-8.74002">
        <ele>117.89880371094</ele>
        <time>2018-10-02T08:31:19Z</time>
      </trkpt>
      <trkpt lat="37.19466" lon="-8.74043">
        <ele>118.86010742188</ele>
        <time>2018-10-02T08:31:10Z</time>
      </trkpt>
      <trkpt lat="37.19478" lon="-8.74064">
        <ele>119.82141113281</ele>
        <time>2018-10-02T08:31:07Z</time>
      </trkpt>
      <trkpt lat="37.19482" lon="-8.7407">
        <ele>120.30212402344</ele>
        <time>2018-10-02T08:31:06Z</time>
      </trkpt>
      <trkpt lat="37.19489" lon="-8.74084">
        <ele>123.66674804688</ele>
        <time>2018-10-02T08:31:03Z</time>
      </trkpt>
      <trkpt lat="37.19508" lon="-8.74107">
        <ele>127.03137207031</ele>
        <time>2018-10-02T08:30:54Z</time>
      </trkpt>
      <trkpt lat="37.19548" lon="-8.74121">
        <ele>128.9541015625</ele>
        <time>2018-10-02T08:30:36Z</time>
      </trkpt>
      <trkpt lat="37.19571" lon="-8.7412">
        <ele>125.10876464844</ele>
        <time>2018-10-02T08:30:24Z</time>
      </trkpt>
      <trkpt lat="37.19603" lon="-8.74117">
        <ele>124.14733886719</ele>
        <time>2018-10-02T08:30:09Z</time>
      </trkpt>
      <trkpt lat="37.19626" lon="-8.74087">
        <ele>122.70544433594</ele>
        <time>2018-10-02T08:29:53Z</time>
      </trkpt>
      <trkpt lat="37.19632" lon="-8.74078">
        <ele>122.70544433594</ele>
        <time>2018-10-02T08:29:40Z</time>
      </trkpt>
      <trkpt lat="37.19649" lon="-8.74067">
        <ele>124.62805175781</ele>
        <time>2018-10-02T08:29:33Z</time>
      </trkpt>
      <trkpt lat="37.19659" lon="-8.74066">
        <ele>126.55065917969</ele>
        <time>2018-10-02T08:29:30Z</time>
      </trkpt>
      <trkpt lat="37.19671" lon="-8.74065">
        <ele>130.39599609375</ele>
        <time>2018-10-02T08:29:26Z</time>
      </trkpt>
      <trkpt lat="37.1968" lon="-8.74064">
        <ele>134.2412109375</ele>
        <time>2018-10-02T08:29:22Z</time>
      </trkpt>
      <trkpt lat="37.19689" lon="-8.74064">
        <ele>137.12524414062</ele>
        <time>2018-10-02T08:29:18Z</time>
      </trkpt>
      <trkpt lat="37.19716" lon="-8.74056">
        <ele>140.97045898438</ele>
        <time>2018-10-02T08:29:07Z</time>
      </trkpt>
      <trkpt lat="37.19728" lon="-8.74053">
        <ele>143.37365722656</ele>
        <time>2018-10-02T08:29:00Z</time>
      </trkpt>
      <trkpt lat="37.19761" lon="-8.74066">
        <ele>142.89306640625</ele>
        <time>2018-10-02T08:28:48Z</time>
      </trkpt>
      <trkpt lat="37.19766" lon="-8.74068">
        <ele>143.37365722656</ele>
        <time>2018-10-02T08:28:47Z</time>
      </trkpt>
      <trkpt lat="37.19788" lon="-8.74077">
        <ele>146.2578125</ele>
        <time>2018-10-02T08:28:42Z</time>
      </trkpt>
      <trkpt lat="37.19806" lon="-8.74093">
        <ele>149.1416015625</ele>
        <time>2018-10-02T08:28:35Z</time>
      </trkpt>
      <trkpt lat="37.19842" lon="-8.74109">
        <ele>150.58361816406</ele>
        <time>2018-10-02T08:28:21Z</time>
      </trkpt>
      <trkpt lat="37.19857" lon="-8.74114">
        <ele>151.06420898438</ele>
        <time>2018-10-02T08:27:59Z</time>
      </trkpt>
      <trkpt lat="37.19861" lon="-8.74113">
        <ele>151.06420898438</ele>
        <time>2018-10-02T08:27:47Z</time>
      </trkpt>
      <trkpt lat="37.19889" lon="-8.74104">
        <ele>148.18041992188</ele>
        <time>2018-10-02T08:27:39Z</time>
      </trkpt>
      <trkpt lat="37.19897" lon="-8.74102">
        <ele>148.18041992188</ele>
        <time>2018-10-02T08:27:38Z</time>
      </trkpt>
      <trkpt lat="37.19928" lon="-8.74106">
        <ele>151.06420898438</ele>
        <time>2018-10-02T08:27:33Z</time>
      </trkpt>
      <trkpt lat="37.19944" lon="-8.74118">
        <ele>152.02575683594</ele>
        <time>2018-10-02T08:27:29Z</time>
      </trkpt>
      <trkpt lat="37.1995" lon="-8.74124">
        <ele>152.98693847656</ele>
        <time>2018-10-02T08:27:27Z</time>
      </trkpt>
      <trkpt lat="37.19993" lon="-8.74159">
        <ele>155.87097167969</ele>
        <time>2018-10-02T08:27:14Z</time>
      </trkpt>
      <trkpt lat="37.19996" lon="-8.74161">
        <ele>156.3515625</ele>
        <time>2018-10-02T08:27:13Z</time>
      </trkpt>
      <trkpt lat="37.20014" lon="-8.74176">
        <ele>159.71618652344</ele>
        <time>2018-10-02T08:27:06Z</time>
      </trkpt>
      <trkpt lat="37.20053" lon="-8.74207">
        <ele>160.19689941406</ele>
        <time>2018-10-02T08:26:45Z</time>
      </trkpt>
      <trkpt lat="37.20087" lon="-8.74246">
        <ele>158.75476074219</ele>
        <time>2018-10-02T08:26:25Z</time>
      </trkpt>
      <trkpt lat="37.20132" lon="-8.74269">
        <ele>159.23547363281</ele>
        <time>2018-10-02T08:26:03Z</time>
      </trkpt>
      <trkpt lat="37.20164" lon="-8.74284">
        <ele>159.71618652344</ele>
        <time>2018-10-02T08:25:43Z</time>
      </trkpt>
      <trkpt lat="37.20201" lon="-8.743">
        <ele>157.31286621094</ele>
        <time>2018-10-02T08:25:18Z</time>
      </trkpt>
      <trkpt lat="37.20226" lon="-8.74304">
        <ele>155.39025878906</ele>
        <time>2018-10-02T08:25:02Z</time>
      </trkpt>
      <trkpt lat="37.20226" lon="-8.74304">
        <ele>153.94836425781</ele>
        <time>2018-10-02T08:23:02Z</time>
      </trkpt>
      <trkpt lat="37.20235" lon="-8.74299">
        <ele>153.94836425781</ele>
        <time>2018-10-02T08:22:47Z</time>
      </trkpt>
      <trkpt lat="37.20252" lon="-8.74293">
        <ele>150.10302734375</ele>
        <time>2018-10-02T08:22:35Z</time>
      </trkpt>
      <trkpt lat="37.20273" lon="-8.74308">
        <ele>147.69970703125</ele>
        <time>2018-10-02T08:22:18Z</time>
      </trkpt>
      <trkpt lat="37.20284" lon="-8.74315">
        <ele>145.77709960938</ele>
        <time>2018-10-02T08:22:11Z</time>
      </trkpt>
      <trkpt lat="37.20294" lon="-8.74317">
        <ele>143.37365722656</ele>
        <time>2018-10-02T08:22:04Z</time>
      </trkpt>
      <trkpt lat="37.20322" lon="-8.74328">
        <ele>141.93176269531</ele>
        <time>2018-10-02T08:21:54Z</time>
      </trkpt>
      <trkpt lat="37.20336" lon="-8.74339">
        <ele>143.37365722656</ele>
        <time>2018-10-02T08:21:48Z</time>
      </trkpt>
      <trkpt lat="37.20339" lon="-8.7434">
        <ele>143.37365722656</ele>
        <time>2018-10-02T08:21:47Z</time>
      </trkpt>
      <trkpt lat="37.20368" lon="-8.74341">
        <ele>140.00915527344</ele>
        <time>2018-10-02T08:21:33Z</time>
      </trkpt>
      <trkpt lat="37.20411" lon="-8.74348">
        <ele>138.08654785156</ele>
        <time>2018-10-02T08:21:17Z</time>
      </trkpt>
      <trkpt lat="37.2046" lon="-8.74345">
        <ele>138.56726074219</ele>
        <time>2018-10-02T08:21:06Z</time>
      </trkpt>
      <trkpt lat="37.20508" lon="-8.74343">
        <ele>141.93176269531</ele>
        <time>2018-10-02T08:20:54Z</time>
      </trkpt>
      <trkpt lat="37.20546" lon="-8.74343">
        <ele>140.97045898438</ele>
        <time>2018-10-02T08:20:39Z</time>
      </trkpt>
      <trkpt lat="37.20598" lon="-8.74344">
        <ele>142.89306640625</ele>
        <time>2018-10-02T08:20:25Z</time>
      </trkpt>
      <trkpt lat="37.2064" lon="-8.74353">
        <ele>143.85437011719</ele>
        <time>2018-10-02T08:20:16Z</time>
      </trkpt>
      <trkpt lat="37.20655" lon="-8.74368">
        <ele>143.37365722656</ele>
        <time>2018-10-02T08:20:05Z</time>
      </trkpt>
      <trkpt lat="37.20668" lon="-8.74384">
        <ele>141.45104980469</ele>
        <time>2018-10-02T08:19:59Z</time>
      </trkpt>
      <trkpt lat="37.20691" lon="-8.74427">
        <ele>142.89306640625</ele>
        <time>2018-10-02T08:19:44Z</time>
      </trkpt>
      <trkpt lat="37.20698" lon="-8.74449">
        <ele>140.00915527344</ele>
        <time>2018-10-02T08:19:40Z</time>
      </trkpt>
      <trkpt lat="37.20713" lon="-8.74489">
        <ele>143.85437011719</ele>
        <time>2018-10-02T08:19:35Z</time>
      </trkpt>
      <trkpt lat="37.20741" lon="-8.74513">
        <ele>146.73840332031</ele>
        <time>2018-10-02T08:19:22Z</time>
      </trkpt>
      <trkpt lat="37.20774" lon="-8.74523">
        <ele>145.77709960938</ele>
        <time>2018-10-02T08:19:03Z</time>
      </trkpt>
      <trkpt lat="37.20782" lon="-8.74527">
        <ele>144.33520507812</ele>
        <time>2018-10-02T08:18:58Z</time>
      </trkpt>
      <trkpt lat="37.20795" lon="-8.7454">
        <ele>140.97045898438</ele>
        <time>2018-10-02T08:18:46Z</time>
      </trkpt>
      <trkpt lat="37.20817" lon="-8.74569">
        <ele>137.60583496094</ele>
        <time>2018-10-02T08:18:24Z</time>
      </trkpt>
      <trkpt lat="37.20827" lon="-8.74573">
        <ele>135.68310546875</ele>
        <time>2018-10-02T08:18:18Z</time>
      </trkpt>
      <trkpt lat="37.20842" lon="-8.74576">
        <ele>132.79931640625</ele>
        <time>2018-10-02T08:18:07Z</time>
      </trkpt>
      <trkpt lat="37.20876" lon="-8.7458">
        <ele>130.87670898438</ele>
        <time>2018-10-02T08:17:53Z</time>
      </trkpt>
      <trkpt lat="37.20894" lon="-8.74545">
        <ele>128.47338867188</ele>
        <time>2018-10-02T08:17:39Z</time>
      </trkpt>
      <trkpt lat="37.20905" lon="-8.74533">
        <ele>127.51196289062</ele>
        <time>2018-10-02T08:17:34Z</time>
      </trkpt>
      <trkpt lat="37.20919" lon="-8.74481">
        <ele>126.55065917969</ele>
        <time>2018-10-02T08:17:21Z</time>
      </trkpt>
      <trkpt lat="37.20923" lon="-8.74453">
        <ele>127.03137207031</ele>
        <time>2018-10-02T08:17:16Z</time>
      </trkpt>
      <trkpt lat="37.20941" lon="-8.744">
        <ele>127.51196289062</ele>
        <time>2018-10-02T08:17:07Z</time>
      </trkpt>
      <trkpt lat="37.20939" lon="-8.74363">
        <ele>128.9541015625</ele>
        <time>2018-10-02T08:17:01Z</time>
      </trkpt>
      <trkpt lat="37.2092" lon="-8.74296">
        <ele>130.87670898438</ele>
        <time>2018-10-02T08:16:49Z</time>
      </trkpt>
      <trkpt lat="37.20874" lon="-8.74241">
        <ele>132.79931640625</ele>
        <time>2018-10-02T08:16:31Z</time>
      </trkpt>
      <trkpt lat="37.20861" lon="-8.74224">
        <ele>132.79931640625</ele>
        <time>2018-10-02T08:15:54Z</time>
      </trkpt>
      <trkpt lat="37.20861" lon="-8.74224">
        <ele>132.31860351562</ele>
        <time>2018-10-02T08:15:03Z</time>
      </trkpt>
      <trkpt lat="37.20836" lon="-8.74193">
        <ele>132.31860351562</ele>
        <time>2018-10-02T08:14:46Z</time>
      </trkpt>
      <trkpt lat="37.20794" lon="-8.74142">
        <ele>129.91528320312</ele>
        <time>2018-10-02T08:14:25Z</time>
      </trkpt>
      <trkpt lat="37.20757" lon="-8.74098">
        <ele>126.55065917969</ele>
        <time>2018-10-02T08:14:03Z</time>
      </trkpt>
      <trkpt lat="37.20708" lon="-8.74075">
        <ele>125.10876464844</ele>
        <time>2018-10-02T08:13:38Z</time>
      </trkpt>
      <trkpt lat="37.20681" lon="-8.74064">
        <ele>122.22473144531</ele>
        <time>2018-10-02T08:13:25Z</time>
      </trkpt>
      <trkpt lat="37.20652" lon="-8.74048">
        <ele>119.3408203125</ele>
        <time>2018-10-02T08:13:10Z</time>
      </trkpt>
      <trkpt lat="37.20624" lon="-8.74027">
        <ele>115.97619628906</ele>
        <time>2018-10-02T08:12:53Z</time>
      </trkpt>
      <trkpt lat="37.20617" lon="-8.74022">
        <ele>114.5341796875</ele>
        <time>2018-10-02T08:12:48Z</time>
      </trkpt>
      <trkpt lat="37.20595" lon="-8.74005">
        <ele>111.65026855469</ele>
        <time>2018-10-02T08:12:32Z</time>
      </trkpt>
      <trkpt lat="37.20578" lon="-8.73992">
        <ele>108.28564453125</ele>
        <time>2018-10-02T08:12:20Z</time>
      </trkpt>
      <trkpt lat="37.2055" lon="-8.7397">
        <ele>105.40173339844</ele>
        <time>2018-10-02T08:12:01Z</time>
      </trkpt>
      <trkpt lat="37.20539" lon="-8.73955">
        <ele>102.51770019531</ele>
        <time>2018-10-02T08:11:52Z</time>
      </trkpt>
      <trkpt lat="37.20528" lon="-8.73927">
        <ele>99.153076171875</ele>
        <time>2018-10-02T08:11:35Z</time>
      </trkpt>
      <trkpt lat="37.20517" lon="-8.73897">
        <ele>95.788452148438</ele>
        <time>2018-10-02T08:11:18Z</time>
      </trkpt>
      <trkpt lat="37.20514" lon="-8.73868">
        <ele>92.423950195312</ele>
        <time>2018-10-02T08:11:07Z</time>
      </trkpt>
      <trkpt lat="37.20511" lon="-8.73865">
        <ele>91.462524414062</ele>
        <time>2018-10-02T08:11:00Z</time>
      </trkpt>
      <trkpt lat="37.20511" lon="-8.73865">
        <ele>91.462524414062</ele>
        <time>2018-10-02T08:10:20Z</time>
      </trkpt>
      <trkpt lat="37.20505" lon="-8.7386">
        <ele>89.059326171875</ele>
        <time>2018-10-02T08:10:08Z</time>
      </trkpt>
      <trkpt lat="37.20503" lon="-8.73859">
        <ele>88.578735351562</ele>
        <time>2018-10-02T08:10:07Z</time>
      </trkpt>
      <trkpt lat="37.20485" lon="-8.73839">
        <ele>85.213989257812</ele>
        <time>2018-10-02T08:09:55Z</time>
      </trkpt>
      <trkpt lat="37.20474" lon="-8.7382">
        <ele>82.330078125</ele>
        <time>2018-10-02T08:09:46Z</time>
      </trkpt>
      <trkpt lat="37.20468" lon="-8.73767">
        <ele>80.407470703125</ele>
        <time>2018-10-02T08:09:29Z</time>
      </trkpt>
      <trkpt lat="37.20432" lon="-8.73735">
        <ele>80.407470703125</ele>
        <time>2018-10-02T08:09:13Z</time>
      </trkpt>
      <trkpt lat="37.2037" lon="-8.73746">
        <ele>78.965454101562</ele>
        <time>2018-10-02T08:08:52Z</time>
      </trkpt>
      <trkpt lat="37.20314" lon="-8.73734">
        <ele>79.926635742188</ele>
        <time>2018-10-02T08:08:34Z</time>
      </trkpt>
      <trkpt lat="37.20271" lon="-8.73709">
        <ele>78.004028320312</ele>
        <time>2018-10-02T08:08:17Z</time>
      </trkpt>
      <trkpt lat="37.20232" lon="-8.73647">
        <ele>77.042846679688</ele>
        <time>2018-10-02T08:07:55Z</time>
      </trkpt>
      <trkpt lat="37.20192" lon="-8.73603">
        <ele>76.562133789062</ele>
        <time>2018-10-02T08:07:36Z</time>
      </trkpt>
      <trkpt lat="37.20134" lon="-8.73554">
        <ele>77.042846679688</ele>
        <time>2018-10-02T08:07:13Z</time>
      </trkpt>
      <trkpt lat="37.20078" lon="-8.73506">
        <ele>74.158813476562</ele>
        <time>2018-10-02T08:06:49Z</time>
      </trkpt>
      <trkpt lat="37.20027" lon="-8.73462">
        <ele>74.639526367188</ele>
        <time>2018-10-02T08:06:28Z</time>
      </trkpt>
      <trkpt lat="37.19967" lon="-8.73415">
        <ele>73.197631835938</ele>
        <time>2018-10-02T08:06:05Z</time>
      </trkpt>
      <trkpt lat="37.19902" lon="-8.73366">
        <ele>70.794189453125</ele>
        <time>2018-10-02T08:05:40Z</time>
      </trkpt>
      <trkpt lat="37.19854" lon="-8.73324">
        <ele>70.794189453125</ele>
        <time>2018-10-02T08:05:21Z</time>
      </trkpt>
      <trkpt lat="37.19825" lon="-8.7325">
        <ele>71.27490234375</ele>
        <time>2018-10-02T08:04:59Z</time>
      </trkpt>
      <trkpt lat="37.19794" lon="-8.7317">
        <ele>69.832885742188</ele>
        <time>2018-10-02T08:04:33Z</time>
      </trkpt>
      <trkpt lat="37.1977" lon="-8.73115">
        <ele>69.832885742188</ele>
        <time>2018-10-02T08:04:16Z</time>
      </trkpt>
      <trkpt lat="37.19736" lon="-8.73092">
        <ele>66.46826171875</ele>
        <time>2018-10-02T08:04:02Z</time>
      </trkpt>
      <trkpt lat="37.19676" lon="-8.73031">
        <ele>65.987670898438</ele>
        <time>2018-10-02T08:03:35Z</time>
      </trkpt>
      <trkpt lat="37.19641" lon="-8.72974">
        <ele>65.0263671875</ele>
        <time>2018-10-02T08:03:14Z</time>
      </trkpt>
      <trkpt lat="37.19606" lon="-8.72933">
        <ele>63.584350585938</ele>
        <time>2018-10-02T08:02:57Z</time>
      </trkpt>
      <trkpt lat="37.1958" lon="-8.72903">
        <ele>62.142333984375</ele>
        <time>2018-10-02T08:02:44Z</time>
      </trkpt>
      <trkpt lat="37.19533" lon="-8.72865">
        <ele>63.584350585938</ele>
        <time>2018-10-02T08:02:29Z</time>
      </trkpt>
      <trkpt lat="37.19481" lon="-8.72832">
        <ele>61.181030273438</ele>
        <time>2018-10-02T08:02:09Z</time>
      </trkpt>
      <trkpt lat="37.19426" lon="-8.72837">
        <ele>60.700317382812</ele>
        <time>2018-10-02T08:01:51Z</time>
      </trkpt>
      <trkpt lat="37.1937" lon="-8.72837">
        <ele>61.181030273438</ele>
        <time>2018-10-02T08:01:34Z</time>
      </trkpt>
      <trkpt lat="37.19305" lon="-8.72827">
        <ele>62.142333984375</ele>
        <time>2018-10-02T08:01:13Z</time>
      </trkpt>
      <trkpt lat="37.19238" lon="-8.72807">
        <ele>60.700317382812</ele>
        <time>2018-10-02T08:00:50Z</time>
      </trkpt>
      <trkpt lat="37.1917" lon="-8.72801">
        <ele>60.2197265625</ele>
        <time>2018-10-02T08:00:29Z</time>
      </trkpt>
      <trkpt lat="37.19119" lon="-8.72781">
        <ele>60.700317382812</ele>
        <time>2018-10-02T08:00:12Z</time>
      </trkpt>
      <trkpt lat="37.19088" lon="-8.72751">
        <ele>59.739135742188</ele>
        <time>2018-10-02T07:59:58Z</time>
      </trkpt>
      <trkpt lat="37.19087" lon="-8.72748">
        <ele>59.258422851562</ele>
        <time>2018-10-02T07:59:57Z</time>
      </trkpt>
      <trkpt lat="37.19049" lon="-8.72684">
        <ele>56.855102539062</ele>
        <time>2018-10-02T07:59:33Z</time>
      </trkpt>
      <trkpt lat="37.19007" lon="-8.72651">
        <ele>55.893798828125</ele>
        <time>2018-10-02T07:59:16Z</time>
      </trkpt>
      <trkpt lat="37.18959" lon="-8.72627">
        <ele>55.4130859375</ele>
        <time>2018-10-02T07:58:58Z</time>
      </trkpt>
      <trkpt lat="37.18913" lon="-8.72647">
        <ele>53.490478515625</ele>
        <time>2018-10-02T07:58:39Z</time>
      </trkpt>
      <trkpt lat="37.18889" lon="-8.72707">
        <ele>53.490478515625</ele>
        <time>2018-10-02T07:58:21Z</time>
      </trkpt>
      <trkpt lat="37.18851" lon="-8.72711">
        <ele>51.56787109375</ele>
        <time>2018-10-02T07:58:05Z</time>
      </trkpt>
      <trkpt lat="37.18798" lon="-8.72682">
        <ele>50.606567382812</ele>
        <time>2018-10-02T07:57:45Z</time>
      </trkpt>
      <trkpt lat="37.18737" lon="-8.72676">
        <ele>50.1259765625</ele>
        <time>2018-10-02T07:57:26Z</time>
      </trkpt>
      <trkpt lat="37.18702" lon="-8.7268">
        <ele>49.16455078125</ele>
        <time>2018-10-02T07:57:10Z</time>
      </trkpt>
      <trkpt lat="37.18675" lon="-8.72688">
        <ele>49.16455078125</ele>
        <time>2018-10-02T07:56:54Z</time>
      </trkpt>
      <trkpt lat="37.18608" lon="-8.72721">
        <ele>49.645263671875</ele>
        <time>2018-10-02T07:42:30Z</time>
      </trkpt>
      <trkpt lat="37.18558" lon="-8.72739">
        <ele>49.16455078125</ele>
        <time>2018-10-02T07:42:12Z</time>
      </trkpt>
      <trkpt lat="37.1849" lon="-8.72749">
        <ele>47.722534179688</ele>
        <time>2018-10-02T07:41:48Z</time>
      </trkpt>
      <trkpt lat="37.18441" lon="-8.7279">
        <ele>46.76123046875</ele>
        <time>2018-10-02T07:41:27Z</time>
      </trkpt>
      <trkpt lat="37.18418" lon="-8.72819">
        <ele>45.319213867188</ele>
        <time>2018-10-02T07:41:16Z</time>
      </trkpt>
      <trkpt lat="37.18266" lon="-8.72837">
        <ele>46.76123046875</ele>
        <time>2019-01-06T09:58:09Z</time>
      </trkpt>
      <trkpt lat="37.18177" lon="-8.72744">
        <ele>46.280639648438</ele>
        <time>2019-01-06T09:57:35Z</time>
      </trkpt>
      <trkpt lat="37.17981" lon="-8.72648">
        <ele>43.396606445312</ele>
        <time>2019-01-06T09:56:36Z</time>
      </trkpt>
      <trkpt lat="37.17853" lon="-8.72582">
        <ele>41.473999023438</ele>
        <time>2019-01-06T09:55:58Z</time>
      </trkpt>
      <trkpt lat="37.17768" lon="-8.72478">
        <ele>38.590087890625</ele>
        <time>2019-01-06T09:55:24Z</time>
      </trkpt>
      <trkpt lat="37.17727" lon="-8.72472">
        <ele>39.070678710938</ele>
        <time>2019-01-06T09:55:06Z</time>
      </trkpt>
      <trkpt lat="37.17664" lon="-8.72448">
        <ele>39.55126953125</ele>
        <time>2019-01-06T09:54:47Z</time>
      </trkpt>
      <trkpt lat="37.17513" lon="-8.72324">
        <ele>37.148071289062</ele>
        <time>2019-01-06T09:54:02Z</time>
      </trkpt>
      <trkpt lat="37.17471" lon="-8.72191">
        <ele>38.590087890625</ele>
        <time>2019-01-06T09:53:35Z</time>
      </trkpt>
      <trkpt lat="37.17269" lon="-8.71973">
        <ele>37.628662109375</ele>
        <time>2019-01-06T09:52:28Z</time>
      </trkpt>
      <trkpt lat="37.17059" lon="-8.71806">
        <ele>34.26416015625</ele>
        <time>2019-01-06T09:51:23Z</time>
      </trkpt>
      <trkpt lat="37.17011" lon="-8.71649">
        <ele>28.976928710938</ele>
        <time>2019-01-06T09:50:43Z</time>
      </trkpt>
      <trkpt lat="37.16902" lon="-8.71518">
        <ele>29.45751953125</ele>
        <time>2019-01-06T09:50:07Z</time>
      </trkpt>
      <trkpt lat="37.16888" lon="-8.71508">
        <ele>29.45751953125</ele>
        <time>2019-01-06T09:50:03Z</time>
      </trkpt>
      <trkpt lat="37.16626" lon="-8.71349">
        <ele>28.015502929688</ele>
        <time>2019-01-06T09:48:55Z</time>
      </trkpt>
      <trkpt lat="37.16474" lon="-8.71356">
        <ele>26.092895507812</ele>
        <time>2019-01-06T09:48:19Z</time>
      </trkpt>
      <trkpt lat="37.16213" lon="-8.71428">
        <ele>23.689575195312</ele>
        <time>2019-01-06T09:47:18Z</time>
      </trkpt>
      <trkpt lat="37.16068" lon="-8.71398">
        <ele>22.24755859375</ele>
        <time>2019-01-06T09:46:45Z</time>
      </trkpt>
      <trkpt lat="37.16027" lon="-8.7142">
        <ele>20.8056640625</ele>
        <time>2019-01-06T09:46:35Z</time>
      </trkpt>
      <trkpt lat="37.15991" lon="-8.71466">
        <ele>20.8056640625</ele>
        <time>2019-01-06T09:46:24Z</time>
      </trkpt>
      <trkpt lat="37.15912" lon="-8.71772">
        <ele>22.728271484375</ele>
        <time>2019-01-06T09:45:36Z</time>
      </trkpt>
      <trkpt lat="37.15885" lon="-8.71885">
        <ele>26.573608398438</ele>
        <time>2019-01-06T09:45:19Z</time>
      </trkpt>
      <trkpt lat="37.15864" lon="-8.71957">
        <ele>28.015502929688</ele>
        <time>2019-01-06T09:45:06Z</time>
      </trkpt>
      <trkpt lat="37.15825" lon="-8.71995">
        <ele>28.976928710938</ele>
        <time>2019-01-06T09:44:54Z</time>
      </trkpt>
    </trkseg>
  </trk>
</gpx>